createdAt,value
2022-12-12T00:01:26.733Z,100026.28
2022-12-12T00:03:55.289Z,100027.13
2022-12-12T00:06:24.135Z,100023.34
2022-12-12T00:08:52.803Z,100033.47
2022-12-12T00:11:21.873Z,100028.91
2022-12-12T00:13:50.011Z,100010.28
2022-12-12T00:16:18.903Z,100039.03
2022-12-12T00:18:48.319Z,100040.84
2022-12-12T00:21:19.694Z,100030.84
2022-12-12T00:23:48.094Z,100046.22
2022-12-12T00:26:21.090Z,100042.63
2022-12-12T00:28:49.072Z,100033.81
2022-12-12T00:31:17.890Z,100048.97
2022-12-12T00:33:48.549Z,100036.28
2022-12-12T00:36:19.821Z,100040.34
2022-12-12T00:38:48.795Z,100036.44
2022-12-12T00:41:17.570Z,100045.88
2022-12-12T00:43:45.655Z,100055.38
2022-12-12T00:46:16.540Z,100021.72
2022-12-12T00:48:44.716Z,100049.47
2022-12-12T00:51:16.279Z,100023.84
2022-12-12T00:53:45.767Z,100037.72
2022-12-12T00:56:15.940Z,100015.50
2022-12-12T00:58:44.427Z,99981.38
2022-12-12T01:01:13.941Z,100024.00
2022-12-12T01:03:43.471Z,100055.66
2022-12-12T01:06:11.899Z,100063.84
2022-12-12T01:08:40.803Z,100036.56
2022-12-12T01:11:12.295Z,100058.28
2022-12-12T01:13:41.221Z,100042.75
2022-12-12T01:16:09.892Z,100069.38
2022-12-12T01:18:39.061Z,100072.13
2022-12-12T01:21:09.871Z,100066.44
2022-12-12T01:23:38.278Z,100074.25
2022-12-12T01:26:08.666Z,100081.09
2022-12-12T01:28:38.654Z,100083.88
2022-12-12T01:31:07.401Z,100071.44
2022-12-12T01:33:35.653Z,100092.03
2022-12-12T01:36:05.576Z,100089.59
2022-12-12T01:38:33.841Z,100095.94
2022-12-12T01:41:02.299Z,100070.91
2022-12-12T01:43:30.715Z,100099.81
2022-12-12T01:46:38.054Z,100104.09
2022-12-12T01:49:14.273Z,100107.81
2022-12-12T01:51:43.213Z,100076.59
2022-12-12T01:54:15.117Z,100103.88
2022-12-12T01:56:45.897Z,100091.59
2022-12-12T01:59:16.280Z,100078.03
2022-12-12T02:01:45.037Z,100086.22
2022-12-12T02:04:17.513Z,100072.81
2022-12-12T02:06:47.155Z,100096.81
2022-12-12T02:09:16.988Z,100115.13
2022-12-12T02:11:47.951Z,100089.75
2022-12-12T02:14:20.047Z,100080.31
2022-12-12T02:17:04.382Z,100115.44
2022-12-12T02:20:10.671Z,100110.53
2022-12-12T02:22:51.784Z,100116.59
2022-12-12T02:25:39.173Z,100117.53
2022-12-12T02:28:34.064Z,100085.31
2022-12-12T02:31:15.708Z,100051.66
2022-12-12T02:33:54.228Z,100091.84
2022-12-12T02:36:35.745Z,100116.19
2022-12-12T02:39:11.571Z,100082.03
2022-12-12T02:41:43.822Z,100093.00
2022-12-12T02:44:25.618Z,100106.38
2022-12-12T02:47:02.832Z,100079.75
2022-12-12T02:49:34.720Z,100106.03
2022-12-12T02:52:05.635Z,100074.28
2022-12-12T02:54:35.027Z,100087.38
2022-12-12T02:57:13.902Z,100074.91
2022-12-12T02:59:44.261Z,100033.75
2022-12-12T03:02:48.766Z,100080.69
2022-12-12T03:05:55.626Z,100100.59
2022-12-12T03:08:40.281Z,100068.25
2022-12-12T03:11:12.587Z,100106.28
2022-12-12T03:13:49.028Z,100104.97
2022-12-12T03:16:26.461Z,100088.63
2022-12-12T03:19:01.922Z,100035.28
2022-12-12T03:21:39.347Z,100074.22
2022-12-12T03:24:12.638Z,100050.31
2022-12-12T03:26:48.762Z,100105.91
2022-12-12T03:29:21.026Z,100087.91
2022-12-12T03:31:56.504Z,100102.25
2022-12-12T03:34:30.769Z,100075.59
2022-12-12T03:37:07.268Z,100029.38
2022-12-12T03:39:41.487Z,100109.13
2022-12-12T03:42:14.455Z,100077.06
2022-12-12T03:44:47.182Z,100102.88
2022-12-12T03:47:20.543Z,100083.72
2022-12-12T03:49:55.188Z,100057.69
2022-12-12T03:52:27.448Z,100055.09
2022-12-12T03:55:01.015Z,100057.84
2022-12-12T03:57:35.155Z,100081.06
2022-12-12T04:00:07.226Z,100109.97
2022-12-12T04:02:41.792Z,100100.47
2022-12-12T04:05:17.598Z,100116.16
2022-12-12T04:07:50.777Z,100091.94
2022-12-12T04:10:36.288Z,100062.63
2022-12-12T04:13:10.951Z,100121.38
2022-12-12T04:15:58.873Z,100082.41
2022-12-12T04:18:34.934Z,100125.25
2022-12-12T04:21:29.489Z,100118.22
2022-12-12T04:24:04.100Z,100076.09
2022-12-12T04:26:42.357Z,100133.69
2022-12-12T04:29:27.966Z,100120.91
2022-12-12T04:31:59.735Z,100130.72
2022-12-12T04:34:37.522Z,100130.72
2022-12-12T04:37:09.372Z,100135.41
2022-12-12T04:39:40.845Z,100144.03
2022-12-12T04:42:12.876Z,100116.50
2022-12-12T04:44:44.047Z,100113.25
2022-12-12T04:47:14.986Z,100145.63
2022-12-12T04:49:45.234Z,100111.63
2022-12-12T04:52:17.051Z,100090.50
2022-12-12T04:54:52.745Z,100072.78
2022-12-12T04:57:26.568Z,100104.72
2022-12-12T04:59:55.103Z,100140.41
2022-12-12T05:02:32.374Z,100100.97
2022-12-12T05:05:04.905Z,100137.97
2022-12-12T05:07:40.254Z,100137.97
2022-12-12T05:10:12.748Z,100119.19
2022-12-12T05:12:42.560Z,100140.50
2022-12-12T05:15:11.417Z,100143.25
2022-12-12T05:17:45.806Z,100146.50
2022-12-12T05:20:14.081Z,100148.59
2022-12-12T05:22:43.474Z,100149.56
2022-12-12T05:25:12.577Z,100137.59
2022-12-12T05:27:40.649Z,100144.44
2022-12-12T05:30:11.187Z,100142.88
2022-12-12T05:32:39.322Z,100145.47
2022-12-12T05:35:09.665Z,100135.25
2022-12-12T05:37:37.549Z,100121.00
2022-12-12T05:40:09.389Z,100144.44
2022-12-12T05:42:37.254Z,100156.19
2022-12-12T05:45:06.482Z,100146.38
2022-12-12T05:47:34.355Z,100113.91
2022-12-12T05:50:02.768Z,100149.41
2022-12-12T05:52:30.672Z,100152.09
2022-12-12T05:54:58.697Z,100109.84
2022-12-12T05:57:28.142Z,100105.34
2022-12-12T05:59:56.434Z,100132.22
2022-12-12T06:02:24.346Z,100133.19
2022-12-12T06:04:52.682Z,100163.63
2022-12-12T06:07:20.562Z,100167.19
2022-12-12T06:09:48.697Z,100138.41
2022-12-12T06:12:16.468Z,100160.38
2022-12-12T06:14:45.686Z,100162.97
2022-12-12T06:17:13.567Z,100148.50
2022-12-12T06:19:42.211Z,100172.69
2022-12-12T06:22:10.481Z,100150.72
2022-12-12T06:24:38.360Z,100159.75
2022-12-12T06:27:07.750Z,100124.16
2022-12-12T06:29:35.752Z,100118.44
2022-12-12T06:32:05.554Z,100174.63
2022-12-12T06:34:34.035Z,100144.63
2022-12-12T06:37:02.150Z,100158.16
2022-12-12T06:39:30.588Z,100175.81
2022-12-12T06:41:58.897Z,100156.16
2022-12-12T06:44:26.665Z,100179.38
2022-12-12T06:46:55.423Z,100180.34
2022-12-12T06:49:24.915Z,100168.50
2022-12-12T06:51:52.793Z,100170.16
2022-12-12T06:54:20.732Z,100180.56
2022-12-12T06:56:49.186Z,100165.28
2022-12-12T06:59:17.412Z,100192.88
2022-12-12T07:01:46.213Z,100160.81
2022-12-12T07:04:14.867Z,100161.50
2022-12-12T07:06:44.474Z,100126.38
2022-12-12T07:09:12.397Z,100141.72
2022-12-12T07:11:41.877Z,100186.09
2022-12-12T07:14:11.217Z,100198.66
2022-12-12T07:16:39.908Z,100193.75
2022-12-12T07:19:07.610Z,100203.06
2022-12-12T07:21:35.825Z,100207.72
2022-12-12T07:24:04.982Z,100208.41
2022-12-12T07:26:33.266Z,100211.03
2022-12-12T07:29:03.594Z,100215.41
2022-12-12T07:31:31.281Z,100219.50
2022-12-12T07:33:59.536Z,100219.50
2022-12-12T07:36:27.228Z,100220.31
2022-12-12T07:38:55.238Z,100221.13
2022-12-12T07:41:24.260Z,100217.56
2022-12-12T07:43:52.675Z,100219.34
2022-12-12T07:46:23.934Z,100221.81
2022-12-12T07:48:52.725Z,100223.06
2022-12-12T07:51:21.077Z,100233.47
2022-12-12T07:53:48.927Z,100236.88
2022-12-12T07:56:18.089Z,100238.81
2022-12-12T07:58:47.786Z,100240.59
2022-12-12T08:01:17.841Z,100244.69
2022-12-12T08:03:46.551Z,100243.88
2022-12-12T08:06:17.609Z,100243.88
2022-12-12T08:08:46.417Z,100243.75
2022-12-12T08:11:16.423Z,100257.88
2022-12-12T08:13:45.143Z,100264.69
2022-12-12T08:16:16.870Z,100248.16
2022-12-12T08:18:45.883Z,100256.19
2022-12-12T08:21:18.791Z,100250.59
2022-12-12T08:23:52.506Z,100238.16
2022-12-12T08:26:20.847Z,100270.72
2022-12-12T08:28:49.874Z,100258.78
2022-12-12T08:31:20.654Z,100264.44
2022-12-12T08:33:50.484Z,100256.50
2022-12-12T08:41:57.985Z,100251.66
2022-12-12T08:44:25.770Z,100257.50
2022-12-12T08:46:55.148Z,100253.13
2022-12-12T08:49:23.159Z,100254.78
2022-12-12T08:51:54.440Z,100262.28
2022-12-12T08:57:11.391Z,100251.44
2022-12-12T08:59:39.275Z,100256.38
2022-12-12T09:02:10.000Z,100252.97
2022-12-12T09:04:38.175Z,100256.63
2022-12-12T09:07:08.633Z,100261.38
2022-12-12T09:09:36.806Z,100261.09
2022-12-12T09:12:04.662Z,100260.66
2022-12-12T09:14:32.718Z,100258.41
2022-12-12T09:17:00.333Z,100237.50
2022-12-12T09:19:29.571Z,100259.19
2022-12-12T09:21:57.577Z,100244.84
2022-12-12T09:24:26.201Z,100263.50
2022-12-12T09:26:53.943Z,100262.41
2022-12-12T09:29:22.048Z,100256.75
2022-12-12T09:31:49.814Z,100258.94
2022-12-12T09:34:17.698Z,100260.41
2022-12-12T09:36:46.727Z,100259.16
2022-12-12T09:39:14.696Z,100256.63
2022-12-12T09:41:42.668Z,100251.78
2022-12-12T09:44:15.883Z,100260.63
2022-12-12T09:46:47.214Z,100259.03
2022-12-12T09:49:18.336Z,100255.50
2022-12-12T09:51:50.530Z,100259.78
2022-12-12T09:54:21.294Z,100268.94
2022-12-12T09:57:03.310Z,100262.16
2022-12-12T09:59:38.916Z,100265.16
2022-12-12T10:02:27.254Z,100267.13
2022-12-12T10:05:01.474Z,100267.50
2022-12-12T10:07:36.532Z,100264.44
2022-12-12T10:10:10.313Z,100268.88
2022-12-12T10:12:39.096Z,100257.16
2022-12-12T10:15:14.126Z,100259.31
2022-12-12T10:17:44.914Z,100259.00
2022-12-12T10:20:17.647Z,100257.75
2022-12-12T10:22:50.696Z,100241.41
2022-12-12T10:25:21.872Z,100246.44
2022-12-12T10:27:53.524Z,100254.69
2022-12-12T10:30:22.272Z,100229.03
2022-12-12T10:33:14.366Z,100250.50
2022-12-12T10:35:53.747Z,100244.78
2022-12-12T10:38:38.303Z,100246.94
2022-12-12T10:41:12.957Z,100239.59
2022-12-12T10:43:46.983Z,100224.06
2022-12-12T10:46:23.208Z,100240.78
2022-12-12T10:48:52.623Z,100244.88
2022-12-12T10:51:23.824Z,100238.50
2022-12-12T10:53:53.923Z,100238.19
2022-12-12T10:56:24.160Z,100240.81
2022-12-12T10:58:56.471Z,100240.47
2022-12-12T11:02:00.650Z,100233.50
2022-12-12T11:04:17.111Z,100245.09
2022-12-12T11:06:48.833Z,100239.53
2022-12-12T11:09:20.470Z,100231.38
2022-12-12T11:11:59.295Z,100230.09
2022-12-12T11:14:33.258Z,100223.06
2022-12-12T11:17:00.947Z,100231.25
2022-12-12T11:19:37.324Z,100228.47
2022-12-12T11:22:05.693Z,100227.19
2022-12-12T11:24:35.920Z,100218.03
2022-12-12T11:27:06.481Z,100221.31
2022-12-12T11:29:43.550Z,100218.38
2022-12-12T11:32:15.792Z,100220.66
2022-12-12T11:34:49.032Z,100218.72
2022-12-12T11:37:18.835Z,100228.19
2022-12-12T11:39:51.889Z,100228.84
2022-12-12T11:42:23.033Z,100218.22
2022-12-12T11:45:00.423Z,100213.34
2022-12-12T11:47:31.143Z,100202.72
2022-12-12T11:50:00.343Z,100198.28
2022-12-12T11:52:31.398Z,100201.06
2022-12-12T11:55:01.731Z,100191.28
2022-12-12T11:57:56.652Z,100189.31
2022-12-12T12:00:39.417Z,100192.25
2022-12-12T12:06:26.220Z,100189.94
2022-12-12T12:09:23.343Z,100175.25
2022-12-12T12:12:01.293Z,100185.88
2022-12-12T12:14:50.339Z,100180.63
2022-12-12T12:17:29.144Z,100187.34
2022-12-12T12:20:08.367Z,100183.75
2022-12-12T12:22:50.442Z,100190.09
2022-12-12T12:25:31.337Z,100184.25
2022-12-12T12:28:20.705Z,100174.09
2022-12-12T12:30:57.924Z,100171.31
2022-12-12T12:33:41.294Z,100169.31
2022-12-12T12:36:21.048Z,100164.44
2022-12-12T12:38:57.953Z,100167.38
2022-12-12T12:41:36.082Z,100166.38
2022-12-12T12:44:25.714Z,100166.22
2022-12-12T12:47:03.562Z,100170.63
2022-12-12T12:49:35.563Z,100176.19
2022-12-12T12:52:10.979Z,100152.34
2022-12-12T12:54:40.683Z,100173.56
2022-12-12T12:57:13.327Z,100172.44
2022-12-12T12:59:48.419Z,100173.25
2022-12-12T13:02:27.186Z,100153.13
2022-12-12T13:05:06.833Z,100166.22
2022-12-12T13:07:43.585Z,100171.59
2022-12-12T13:10:22.732Z,100158.19
2022-12-12T13:12:57.020Z,100163.09
2022-12-12T13:15:30.087Z,100154.75
2022-12-12T13:18:04.034Z,100143.16
2022-12-12T13:20:35.797Z,100141.84
2022-12-12T13:23:35.959Z,100146.53
2022-12-12T13:26:10.688Z,100145.72
2022-12-12T13:28:42.716Z,100138.38
2022-12-12T13:31:34.881Z,100142.16
2022-12-12T13:34:06.669Z,100140.50
2022-12-12T13:36:38.177Z,100147.22
2022-12-12T13:39:09.387Z,100085.97
2022-12-12T13:41:58.258Z,100140.97
2022-12-12T13:44:38.556Z,100147.03
2022-12-12T13:47:14.221Z,100149.66
2022-12-12T13:49:53.139Z,100154.88
2022-12-12T13:52:26.260Z,100144.75
2022-12-12T13:54:57.416Z,100154.06
2022-12-12T13:57:34.960Z,100147.03
2022-12-12T14:00:19.966Z,100138.38
2022-12-12T14:03:01.466Z,100123.53
2022-12-12T14:05:33.643Z,100133.75
2022-12-12T14:08:09.166Z,100125.59
2022-12-12T14:10:41.009Z,100140.16
2022-12-12T14:13:31.820Z,100138.53
2022-12-12T14:16:06.504Z,100155.53
2022-12-12T14:18:40.859Z,100145.06
2022-12-12T14:21:12.129Z,100130.06
2022-12-12T14:23:42.404Z,100136.91
2022-12-12T14:26:47.785Z,100153.88
2022-12-12T14:29:25.171Z,100153.88
2022-12-12T14:32:01.348Z,100154.88
2022-12-12T14:34:37.064Z,100136.28
2022-12-12T14:37:20.457Z,100140.19
2022-12-12T14:40:13.842Z,100154.69
2022-12-12T14:43:21.066Z,100160.78
2022-12-12T14:45:37.419Z,100155.69
2022-12-12T14:48:17.661Z,100154.88
2022-12-12T14:50:50.860Z,100152.25
2022-12-12T14:53:21.185Z,100150.31
2022-12-12T14:55:55.581Z,100156.69
2022-12-12T14:58:27.788Z,100168.16
2022-12-12T15:00:59.138Z,100147.56
2022-12-12T15:03:32.479Z,100164.72
2022-12-12T15:06:33.126Z,100163.91
2022-12-12T15:09:16.912Z,100159.47
2022-12-12T15:11:46.111Z,100165.03
2022-12-12T15:14:20.718Z,100164.22
2022-12-12T15:16:53.954Z,100169.97
2022-12-12T15:19:27.388Z,100173.75
2022-12-12T15:21:58.044Z,100160.97
2022-12-12T15:24:28.644Z,100178.81
2022-12-12T15:26:58.128Z,100180.97
2022-12-12T15:29:28.941Z,100187.31
2022-12-12T15:32:00.787Z,100180.78
2022-12-12T15:34:41.508Z,100184.56
2022-12-12T15:37:27.046Z,100186.84
2022-12-12T15:40:00.924Z,100172.63
2022-12-12T15:42:29.710Z,100185.41
2022-12-12T15:44:57.947Z,100189.31
2022-12-12T15:47:26.303Z,100196.34
2022-12-12T15:49:55.169Z,100195.22
2022-12-12T15:52:30.373Z,100180.47
2022-12-12T15:55:05.574Z,100181.16
2022-12-12T15:57:46.559Z,100187.69
2022-12-12T16:00:29.306Z,100164.63
2022-12-12T16:03:04.029Z,100185.41
2022-12-12T16:05:34.914Z,100187.69
2022-12-12T16:08:32.228Z,100191.59
2022-12-12T16:11:02.621Z,100186.84
2022-12-12T16:13:38.361Z,100186.34
2022-12-12T16:16:34.837Z,100193.72
2022-12-12T16:19:03.746Z,100202.97
2022-12-12T16:21:32.492Z,100181.06
2022-12-12T16:24:13.852Z,100182.72
2022-12-12T16:26:41.908Z,100178.81
2022-12-12T16:29:10.621Z,100193.53
2022-12-12T16:31:38.902Z,100190.88
2022-12-12T16:34:07.797Z,100180.41
2022-12-12T16:36:42.018Z,100192.03
2022-12-12T16:39:14.339Z,100190.06
2022-12-12T16:41:42.871Z,100140.50
2022-12-12T16:44:12.472Z,100165.19
2022-12-12T16:46:40.677Z,100132.97
2022-12-12T16:49:15.137Z,100168.13
2022-12-12T16:51:43.874Z,100186.94
2022-12-12T16:54:18.468Z,100192.00
2022-12-12T16:56:52.618Z,100139.81
2022-12-12T16:59:21.764Z,100140.81
2022-12-12T17:01:49.965Z,100173.16
2022-12-12T17:04:23.343Z,100164.69
2022-12-12T17:06:52.201Z,100155.84
2022-12-12T17:09:29.993Z,100168.25
2022-12-12T17:11:58.278Z,100179.03
2022-12-12T17:14:27.842Z,100166.78
2022-12-12T17:16:56.307Z,100164.94
2022-12-12T17:19:26.645Z,100177.06
2022-12-12T17:21:55.323Z,100164.31
2022-12-12T17:24:24.926Z,100086.50
2022-12-12T17:26:53.463Z,100152.03
2022-12-12T17:29:21.594Z,100123.38
2022-12-12T17:31:50.528Z,100169.47
2022-12-12T17:34:18.628Z,100126.00
2022-12-12T17:36:46.710Z,100153.59
2022-12-12T17:39:14.920Z,100167.50
2022-12-12T17:41:44.881Z,100152.78
2022-12-12T17:44:13.033Z,100130.22
2022-12-12T17:46:42.221Z,100113.88
2022-12-12T17:49:10.116Z,100153.75
2022-12-12T17:51:38.448Z,100172.38
2022-12-12T17:54:06.296Z,100175.63
2022-12-12T17:56:34.769Z,100146.22
2022-12-12T17:59:06.160Z,100177.75
2022-12-12T18:01:34.724Z,100172.03
2022-12-12T18:04:05.585Z,100171.84
2022-12-12T18:06:35.955Z,100136.53
2022-12-12T18:09:05.715Z,100173.28
2022-12-12T18:11:36.089Z,100153.34
2022-12-12T18:14:08.100Z,100173.28
2022-12-12T18:16:37.831Z,100159.84
2022-12-12T18:19:05.824Z,100174.69
2022-12-12T18:21:59.926Z,100162.78
2022-12-12T18:24:25.699Z,100175.03
2022-12-12T18:26:54.434Z,100139.81
2022-12-12T18:29:24.713Z,100166.84
2022-12-12T18:31:53.422Z,100149.31
2022-12-12T18:34:22.653Z,100167.31
2022-12-12T18:36:50.918Z,100163.34
2022-12-12T18:39:19.051Z,100170.38
2022-12-12T18:41:49.878Z,100166.94
2022-12-12T18:44:17.959Z,100165.63
2022-12-12T18:46:47.296Z,100147.47
2022-12-12T18:49:18.602Z,100128.28
2022-12-12T18:51:46.874Z,100127.16
2022-12-12T18:54:16.577Z,100172.69
2022-12-12T18:56:45.544Z,100131.91
2022-12-12T18:59:13.735Z,100173.50
2022-12-12T19:01:41.899Z,100133.91
2022-12-12T19:04:14.350Z,100168.28
2022-12-12T19:06:44.462Z,100150.13
2022-12-12T19:09:15.552Z,100176.47
2022-12-12T19:11:44.278Z,100144.56
2022-12-12T19:14:14.490Z,100179.56
2022-12-12T19:16:42.510Z,100145.03
2022-12-12T19:19:12.665Z,100181.22
2022-12-12T19:21:42.577Z,100174.22
2022-12-12T19:24:12.719Z,100170.63
2022-12-12T19:26:43.746Z,100163.56
2022-12-12T19:29:13.913Z,100164.25
2022-12-12T19:31:42.102Z,100130.84
2022-12-12T19:34:13.065Z,100149.69
2022-12-12T19:36:41.502Z,100174.56
2022-12-12T19:39:10.219Z,100128.09
2022-12-12T19:41:38.761Z,100154.25
2022-12-12T19:44:08.941Z,100167.72
2022-12-12T19:46:37.292Z,100169.47
2022-12-12T19:49:08.388Z,100162.16
2022-12-12T19:51:40.152Z,100171.94
2022-12-12T19:54:10.293Z,100166.72
2022-12-12T19:56:41.333Z,100171.94
2022-12-12T19:59:11.569Z,100185.13
2022-12-12T20:01:39.725Z,100149.34
2022-12-12T20:04:10.382Z,100179.09
2022-12-12T20:06:45.251Z,100190.34
2022-12-12T20:09:16.370Z,100186.28
2022-12-12T20:11:45.482Z,100175.66
2022-12-12T20:14:16.750Z,100168.94
2022-12-12T20:16:45.522Z,100170.19
2022-12-12T20:19:14.636Z,100174.84
2022-12-12T20:22:02.176Z,100149.31
2022-12-12T20:24:32.017Z,100174.84
2022-12-12T20:27:00.469Z,100128.81
2022-12-12T20:29:29.188Z,100183.59
2022-12-12T20:31:59.783Z,100181.97
2022-12-12T20:34:28.127Z,100190.78
2022-12-12T20:36:57.970Z,100180.97
2022-12-12T20:39:26.199Z,100191.41
2022-12-12T20:41:55.169Z,100157.31
2022-12-12T20:44:24.276Z,100180.72
2022-12-12T20:46:52.572Z,100209.66
2022-12-12T20:49:24.124Z,100196.53
2022-12-12T20:51:59.413Z,100211.56
2022-12-12T20:54:30.308Z,100203.72
2022-12-12T20:56:59.289Z,100207.34
2022-12-12T20:59:27.797Z,100195.53
2022-12-12T21:01:56.401Z,100174.88
2022-12-12T21:04:25.032Z,100200.06
2022-12-12T21:06:52.961Z,100202.81
2022-12-12T21:09:26.709Z,100202.22
2022-12-12T21:11:58.348Z,100194.47
2022-12-12T21:14:27.674Z,100201.56
2022-12-12T21:16:56.048Z,100172.53
2022-12-12T21:19:24.695Z,100209.22
2022-12-12T21:21:53.395Z,100214.16
2022-12-12T21:24:22.783Z,100215.09
2022-12-12T21:26:51.717Z,100216.06
2022-12-12T21:29:20.981Z,100210.03
2022-12-12T21:31:52.176Z,100208.56
2022-12-12T21:34:21.572Z,100201.84
2022-12-12T21:36:52.064Z,100170.09
2022-12-12T21:39:20.008Z,100146.50
2022-12-12T21:41:47.929Z,100178.06
2022-12-12T21:44:16.214Z,100200.00
2022-12-12T21:46:45.503Z,100195.75
2022-12-12T21:49:28.162Z,100194.56
2022-12-12T21:51:57.625Z,100198.69
2022-12-12T21:54:26.225Z,100187.19
2022-12-12T21:56:54.899Z,100187.06
2022-12-12T21:59:23.275Z,100147.69
2022-12-12T22:01:54.933Z,100177.00
2022-12-12T22:04:22.916Z,100151.44
2022-12-12T22:06:51.621Z,100152.00
2022-12-12T22:09:19.667Z,100192.28
2022-12-12T22:11:52.191Z,100191.31
2022-12-12T22:14:30.738Z,100189.03
2022-12-12T22:17:00.423Z,100157.81
2022-12-12T22:19:28.397Z,100200.69
2022-12-12T22:21:56.360Z,100184.59
2022-12-12T22:24:24.629Z,100162.81
2022-12-12T22:26:52.713Z,100184.59
2022-12-12T22:29:21.819Z,100158.19
2022-12-12T22:31:52.272Z,100196.81
2022-12-12T22:34:24.835Z,100197.63
2022-12-12T22:36:54.169Z,100163.41
2022-12-12T22:39:24.030Z,100187.16
2022-12-12T22:41:52.494Z,100184.69
2022-12-12T22:44:22.636Z,100192.66
2022-12-12T22:46:52.647Z,100175.63
2022-12-12T22:49:26.058Z,100188.69
2022-12-12T22:51:57.472Z,100188.31
2022-12-12T22:54:26.060Z,100138.38
2022-12-12T22:56:54.855Z,100123.03
2022-12-12T22:59:22.809Z,100189.88
2022-12-12T23:01:51.188Z,100164.34
2022-12-12T23:04:19.224Z,100181.69
2022-12-12T23:06:48.966Z,100171.72
2022-12-12T23:09:23.110Z,100174.31
2022-12-12T23:11:51.482Z,100155.50
2022-12-12T23:14:22.785Z,100169.16
2022-12-12T23:16:51.808Z,100152.94
2022-12-12T23:19:21.294Z,100170.28
2022-12-12T23:21:51.010Z,100148.03
2022-12-12T23:24:19.357Z,100154.03
2022-12-12T23:26:47.215Z,100149.13
2022-12-12T23:29:17.329Z,100157.63
2022-12-12T23:31:45.746Z,100109.84
2022-12-12T23:34:18.083Z,100150.25
2022-12-12T23:36:48.805Z,100148.06
2022-12-12T23:39:19.179Z,100136.47
2022-12-12T23:41:47.143Z,100137.44
2022-12-12T23:44:17.651Z,100152.75
2022-12-12T23:46:46.965Z,100144.28
2022-12-12T23:49:16.852Z,100146.06
2022-12-12T23:51:47.472Z,100094.91
2022-12-12T23:54:18.960Z,100123.13
2022-12-12T23:56:48.389Z,100107.72
2022-12-12T23:59:18.351Z,100127.06
